createdAt,value
2022-11-14T00:02:23.189Z,6.90
2022-11-14T00:07:43.473Z,7.40
2022-11-14T00:13:03.357Z,6.68
2022-11-14T00:18:23.741Z,5.95
2022-11-14T00:23:43.517Z,8.60
2022-11-14T00:29:04.043Z,8.25
2022-11-14T00:34:24.241Z,6.90
2022-11-14T00:39:44.843Z,8.20
2022-11-14T00:45:05.651Z,8.35
2022-11-14T00:50:25.613Z,7.80
2022-11-14T00:55:45.533Z,7.78
2022-11-14T01:01:05.888Z,7.30
2022-11-14T01:06:26.258Z,7.68
2022-11-14T01:11:46.504Z,7.00
2022-11-14T01:17:06.892Z,6.80
2022-11-14T01:22:26.961Z,6.65
2022-11-14T01:27:47.132Z,7.22
2022-11-14T01:33:07.831Z,6.93
2022-11-14T01:38:28.013Z,8.45
2022-11-14T01:43:48.614Z,9.63
2022-11-14T01:49:22.254Z,10.32
2022-11-14T01:54:46.707Z,11.85
2022-11-14T02:00:09.754Z,9.25
2022-11-14T02:05:31.307Z,9.75
2022-11-14T02:10:51.223Z,10.02
2022-11-14T02:16:11.238Z,9.63
2022-11-14T02:21:31.502Z,10.35
2022-11-14T02:26:51.440Z,8.88
2022-11-14T02:32:11.734Z,9.18
2022-11-14T02:37:32.078Z,8.95
2022-11-14T02:42:52.364Z,8.93
2022-11-14T02:48:12.312Z,8.13
2022-11-14T02:53:32.606Z,8.93
2022-11-14T02:58:52.764Z,6.97
2022-11-14T03:04:13.215Z,7.40
2022-11-14T03:09:33.310Z,7.45
2022-11-14T03:14:53.306Z,7.25
2022-11-14T03:20:13.503Z,8.07
2022-11-14T03:25:33.759Z,9.23
2022-11-14T03:30:53.870Z,8.57
2022-11-14T03:36:14.097Z,8.93
2022-11-14T03:41:34.528Z,10.65
2022-11-14T03:46:54.862Z,9.20
2022-11-14T03:52:15.030Z,8.23
2022-11-14T03:57:35.024Z,8.50
2022-11-14T04:02:56.053Z,7.60
2022-11-14T04:08:17.613Z,5.93
2022-11-14T04:13:37.514Z,6.95
2022-11-14T04:18:57.669Z,7.38
2022-11-14T04:24:17.472Z,7.95
2022-11-14T04:29:37.760Z,6.80
2022-11-14T04:34:57.926Z,7.72
2022-11-14T04:40:17.874Z,7.78
2022-11-14T04:45:38.027Z,6.60
2022-11-14T04:50:58.304Z,7.68
2022-11-14T04:56:18.306Z,7.57
2022-11-14T05:01:38.570Z,8.05
2022-11-14T05:06:59.061Z,7.90
2022-11-14T05:12:18.965Z,7.97
2022-11-14T05:17:39.253Z,8.00
2022-11-14T05:22:59.340Z,8.65
2022-11-14T05:28:19.830Z,9.93
2022-11-14T05:33:39.752Z,10.43
2022-11-14T05:38:59.958Z,9.50
2022-11-14T05:44:20.217Z,8.15
2022-11-14T05:49:40.194Z,8.80
2022-11-14T05:55:00.441Z,9.52
2022-11-14T06:00:20.625Z,10.48
2022-11-14T06:05:41.128Z,9.43
2022-11-14T06:11:12.485Z,9.40
2022-11-14T06:16:32.617Z,7.80
2022-11-14T06:21:52.842Z,7.57
2022-11-14T06:27:12.826Z,7.93
2022-11-14T06:32:33.133Z,7.35
2022-11-14T06:37:53.709Z,8.98
2022-11-14T06:43:13.626Z,8.82
2022-11-14T06:48:34.415Z,8.50
2022-11-14T06:53:54.428Z,9.27
2022-11-14T06:59:14.529Z,10.07
2022-11-14T07:04:34.679Z,9.00
2022-11-14T07:09:54.651Z,8.55
2022-11-14T07:15:14.733Z,8.48
2022-11-14T07:20:34.986Z,7.95
2022-11-14T07:25:54.955Z,9.18
2022-11-14T07:31:17.564Z,11.65
2022-11-14T07:36:37.861Z,10.93
2022-11-14T07:41:57.688Z,10.43
2022-11-14T07:47:17.554Z,10.02
2022-11-14T07:52:37.519Z,9.15
2022-11-14T07:58:01.149Z,9.15
2022-11-14T08:03:21.369Z,8.32
2022-11-14T08:08:41.830Z,8.77
2022-11-14T08:14:01.903Z,9.43
2022-11-14T08:19:22.181Z,10.82
2022-11-14T08:24:42.099Z,9.30
2022-11-14T08:30:02.316Z,8.90
2022-11-14T08:35:23.065Z,8.48
2022-11-14T08:40:43.148Z,10.27
2022-11-14T08:46:05.512Z,9.95
2022-11-14T08:51:25.904Z,11.48
2022-11-14T08:56:46.074Z,11.65
2022-11-14T09:02:06.128Z,10.85
2022-11-14T09:07:26.427Z,10.75
2022-11-14T09:12:46.648Z,13.20
2022-11-14T09:18:06.985Z,12.30
2022-11-14T09:23:27.332Z,13.98
2022-11-14T09:28:48.626Z,15.27
2022-11-14T09:34:08.513Z,13.85
2022-11-14T09:39:28.776Z,14.55
2022-11-14T09:45:00.585Z,13.63
2022-11-14T09:50:27.678Z,12.95
2022-11-14T10:01:38.933Z,14.02
2022-11-14T10:07:17.525Z,13.17
2022-11-14T10:12:59.795Z,13.13
2022-11-14T10:18:20.143Z,13.70
2022-11-14T10:23:58.202Z,14.45
2022-11-14T10:29:51.458Z,13.23
2022-11-14T10:35:29.815Z,12.75
2022-11-14T10:40:59.081Z,12.82
2022-11-14T10:46:21.704Z,12.93
2022-11-14T10:51:46.192Z,12.50
2022-11-14T10:57:15.390Z,12.07
2022-11-14T11:02:56.126Z,12.82
2022-11-14T11:08:42.753Z,13.85
2022-11-14T11:14:01.707Z,13.57
2022-11-14T11:19:26.946Z,12.57
2022-11-14T11:24:47.242Z,13.40
2022-11-14T11:30:17.981Z,13.85
2022-11-14T11:35:40.391Z,12.70
2022-11-14T11:42:06.144Z,12.55
2022-11-14T11:47:13.667Z,14.73
2022-11-14T11:52:35.827Z,12.48
2022-11-14T11:58:02.263Z,11.65
2022-11-14T12:03:25.389Z,13.35
2022-11-14T12:09:16.771Z,13.52
2022-11-14T12:14:48.534Z,13.05
2022-11-14T12:20:14.698Z,12.75
2022-11-14T12:25:56.624Z,13.00
2022-11-14T12:31:17.965Z,13.60
2022-11-14T12:36:42.938Z,12.70
2022-11-14T12:42:10.411Z,12.88
2022-11-14T12:47:30.554Z,11.45
2022-11-14T12:52:52.367Z,12.05
2022-11-14T12:58:23.298Z,12.93
2022-11-14T13:04:00.656Z,13.05
2022-11-14T13:09:20.570Z,13.05
2022-11-14T13:14:52.901Z,12.13
2022-11-14T13:20:22.275Z,13.95
2022-11-14T13:25:42.515Z,13.15
2022-11-14T13:31:15.085Z,14.82
2022-11-14T13:36:39.271Z,15.35
2022-11-14T13:42:09.315Z,14.05
2022-11-14T13:47:39.257Z,12.55
2022-11-14T13:52:59.401Z,13.05
2022-11-14T13:58:51.224Z,13.57
2022-11-14T14:04:29.501Z,15.23
2022-11-14T14:09:55.365Z,14.82
2022-11-14T14:15:44.809Z,14.70
2022-11-14T14:21:14.113Z,13.75
2022-11-14T14:27:07.945Z,14.30
2022-11-14T14:32:28.312Z,13.15
2022-11-14T14:37:53.527Z,14.68
2022-11-14T14:43:33.877Z,14.02
2022-11-14T14:48:54.204Z,12.93
2022-11-14T14:54:26.709Z,13.15
2022-11-14T14:59:46.965Z,14.55
2022-11-14T15:05:07.206Z,13.07
2022-11-14T15:10:31.879Z,12.82
2022-11-14T15:15:53.010Z,13.20
2022-11-14T15:21:23.000Z,13.23
2022-11-14T15:26:48.492Z,13.48
2022-11-14T15:32:19.058Z,13.38
2022-11-14T15:37:39.387Z,14.50
2022-11-14T15:42:59.304Z,13.70
2022-11-14T15:48:19.526Z,12.32
2022-11-14T15:53:39.380Z,12.73
2022-11-14T15:58:59.739Z,13.27
2022-11-14T16:04:22.880Z,13.15
2022-11-14T16:09:43.255Z,12.65
2022-11-14T16:15:03.204Z,14.23
2022-11-14T16:20:28.936Z,12.60
2022-11-14T16:25:49.111Z,13.40
2022-11-14T16:31:14.029Z,13.77
2022-11-14T16:36:34.196Z,13.05
2022-11-14T16:42:00.228Z,12.70
2022-11-14T16:47:20.646Z,10.98
2022-11-14T16:52:40.868Z,13.48
2022-11-14T16:58:01.307Z,12.45
2022-11-14T17:03:21.839Z,11.98
2022-11-14T17:08:41.775Z,13.18
2022-11-14T17:14:01.967Z,13.77
2022-11-14T17:19:21.865Z,12.75
2022-11-14T17:24:41.863Z,13.07
2022-11-14T17:30:02.211Z,11.73
2022-11-14T17:35:29.816Z,10.55
2022-11-14T17:40:56.899Z,9.45
2022-11-14T17:46:17.095Z,9.77
2022-11-14T17:51:37.390Z,10.23
2022-11-14T17:56:57.374Z,10.13
2022-11-14T18:02:17.494Z,10.68
2022-11-14T18:07:37.983Z,9.82
2022-11-14T18:12:58.499Z,9.75
2022-11-14T18:18:18.904Z,8.63
2022-11-14T18:23:39.225Z,10.15
2022-11-14T18:29:02.508Z,10.52
2022-11-14T18:34:22.501Z,9.73
2022-11-14T18:39:42.533Z,11.95
2022-11-14T18:45:03.152Z,12.07
2022-11-14T18:50:23.327Z,10.40
2022-11-14T18:55:43.587Z,11.35
2022-11-14T19:01:10.172Z,9.20
2022-11-14T19:06:32.158Z,9.73
2022-11-14T19:11:52.338Z,10.48
2022-11-14T19:17:12.513Z,10.77
2022-11-14T19:22:32.813Z,9.80
2022-11-14T19:27:52.922Z,10.70
2022-11-14T19:33:13.257Z,10.27
2022-11-14T19:38:33.736Z,10.18
2022-11-14T19:43:55.402Z,9.57
2022-11-14T19:49:15.751Z,8.70
2022-11-14T19:54:35.908Z,9.48
2022-11-14T19:59:55.829Z,8.95
2022-11-14T20:05:15.899Z,8.77
2022-11-14T20:10:39.476Z,8.18
2022-11-14T20:16:10.068Z,9.25
2022-11-14T20:21:32.682Z,9.52
2022-11-14T20:26:52.801Z,9.65
2022-11-14T20:32:15.792Z,7.60
2022-11-14T20:37:36.400Z,8.68
2022-11-14T20:42:57.217Z,8.18
2022-11-14T20:48:17.393Z,8.18
2022-11-14T20:53:37.994Z,8.50
2022-11-14T20:58:58.094Z,8.02
2022-11-14T21:04:18.564Z,8.70
2022-11-14T21:09:41.730Z,8.38
2022-11-14T21:15:01.901Z,7.93
2022-11-14T21:20:22.095Z,7.90
2022-11-14T21:25:42.485Z,8.13
2022-11-14T21:31:05.200Z,7.78
2022-11-14T21:36:44.271Z,7.90
2022-11-14T21:42:05.669Z,7.57
2022-11-14T21:47:25.786Z,7.22
2022-11-14T21:52:45.739Z,7.00
2022-11-14T21:58:05.828Z,7.82
2022-11-14T22:03:25.845Z,8.05
2022-11-14T22:08:45.892Z,8.05
2022-11-14T22:14:06.853Z,6.03
2022-11-14T22:19:27.087Z,5.75
2022-11-14T22:24:47.041Z,5.75
2022-11-14T22:30:07.567Z,6.53
2022-11-14T22:35:27.930Z,6.93
2022-11-14T22:40:47.823Z,6.72
2022-11-14T22:46:11.025Z,7.10
2022-11-14T22:51:30.885Z,7.00
2022-11-14T22:56:50.853Z,6.70
2022-11-14T23:02:10.609Z,7.90
2022-11-14T23:07:30.762Z,8.40
2022-11-14T23:12:50.995Z,7.15
2022-11-14T23:18:11.569Z,7.57
2022-11-14T23:23:32.105Z,6.80
2022-11-14T23:28:52.700Z,7.30
2022-11-14T23:34:12.734Z,8.35
2022-11-14T23:39:32.751Z,7.20
2022-11-14T23:44:52.624Z,6.40
2022-11-14T23:50:12.531Z,6.90
2022-11-14T23:55:32.574Z,7.28
